createdAt,value
2019-03-03T00:00:23.470Z,96827.44
2019-03-03T00:02:50.628Z,96817.23
2019-03-03T00:05:17.187Z,96821.55
2019-03-03T00:07:43.538Z,96815.70
2019-03-03T00:10:12.588Z,96810.33
2019-03-03T00:12:38.871Z,96799.07
2019-03-03T00:15:08.771Z,96797.75
2019-03-03T00:17:35.199Z,96794.33
2019-03-03T00:20:02.828Z,96792.77
2019-03-03T00:22:29.156Z,96798.13
2019-03-03T00:24:55.492Z,96798.73
2019-03-03T00:27:21.821Z,96798.48
2019-03-03T00:29:48.239Z,96800.66
2019-03-03T00:32:14.922Z,96796.11
2019-03-03T00:34:41.311Z,96797.45
2019-03-03T00:37:12.669Z,96789.91
2019-03-03T00:39:41.772Z,96785.31
2019-03-03T00:42:26.715Z,96779.36
2019-03-03T00:45:02.078Z,96767.59
2019-03-03T00:47:33.657Z,96765.70
2019-03-03T00:50:19.992Z,96773.45
2019-03-03T00:52:48.610Z,96768.05
2019-03-03T00:55:34.063Z,96778.59
2019-03-03T00:58:02.420Z,96779.42
2019-03-03T01:00:30.949Z,96779.97
2019-03-03T01:02:59.145Z,96776.68
2019-03-03T01:05:27.394Z,96777.96
2019-03-03T01:08:12.638Z,96776.81
2019-03-03T01:10:41.075Z,96778.92
2019-03-03T01:13:11.889Z,96782.38
2019-03-03T01:15:38.459Z,96767.83
2019-03-03T01:18:07.629Z,96771.63
2019-03-03T01:20:34.053Z,96775.88
2019-03-03T01:23:15.440Z,96771.85
2019-03-03T01:25:41.882Z,96778.83
2019-03-03T01:28:08.322Z,96767.59
2019-03-03T01:30:34.746Z,96771.63
2019-03-03T01:33:01.191Z,96768.94
2019-03-03T01:35:27.611Z,96757.69
2019-03-03T01:37:53.918Z,96763.86
2019-03-03T01:40:20.172Z,96768.69
2019-03-03T01:42:46.662Z,96771.31
2019-03-03T01:45:14.107Z,96776.11
2019-03-03T01:47:40.604Z,96774.73
2019-03-03T01:50:11.576Z,96770.70
2019-03-03T01:52:38.373Z,96767.16
2019-03-03T01:55:09.538Z,96767.92
2019-03-03T01:57:36.252Z,96763.09
2019-03-03T02:00:17.619Z,96765.48
2019-03-03T02:02:44.135Z,96759.02
2019-03-03T02:05:10.424Z,96763.05
2019-03-03T02:07:39.738Z,96761.10
2019-03-03T02:10:08.347Z,96750.86
2019-03-03T02:12:34.843Z,96754.31
2019-03-03T02:15:01.453Z,96753.48
2019-03-03T02:17:27.886Z,96752.87
2019-03-03T02:19:54.256Z,96752.58
2019-03-03T02:22:20.643Z,96743.94
2019-03-03T02:24:46.971Z,96751.67
2019-03-03T02:27:14.028Z,96744.16
2019-03-03T02:29:40.367Z,96742.27
2019-03-03T02:32:06.984Z,96745.76
2019-03-03T02:34:33.637Z,96747.90
2019-03-03T02:36:59.965Z,96746.02
2019-03-03T02:39:28.102Z,96740.09
2019-03-03T02:41:54.527Z,96730.68
2019-03-03T02:44:20.983Z,96734.72
2019-03-03T02:46:47.268Z,96726.39
2019-03-03T02:49:13.660Z,96721.27
2019-03-03T02:51:40.201Z,96716.44
2019-03-03T02:54:08.360Z,96722.36
2019-03-03T02:56:34.711Z,96715.09
2019-03-03T02:59:01.360Z,96715.90
2019-03-03T03:01:29.538Z,96717.50
2019-03-03T03:03:55.959Z,96706.48
2019-03-03T03:06:24.100Z,96713.21
2019-03-03T03:09:08.885Z,96708.63
2019-03-03T03:11:37.324Z,96707.58
2019-03-03T03:14:05.669Z,96704.05
2019-03-03T03:16:37.987Z,96702.71
2019-03-03T03:19:06.397Z,96705.95
2019-03-03T03:21:37.424Z,96718.58
2019-03-03T03:24:19.405Z,96711.36
2019-03-03T03:26:59.486Z,96714.30
2019-03-03T03:29:35.040Z,96707.87
2019-03-03T03:32:06.667Z,96712.23
2019-03-03T03:34:37.745Z,96708.20
2019-03-03T03:37:06.231Z,96710.63
2019-03-03T03:39:43.386Z,96713.86
2019-03-03T03:42:17.749Z,96707.94
2019-03-03T03:45:02.664Z,96719.49
2019-03-03T03:47:31.117Z,96715.45
2019-03-03T03:50:02.110Z,96715.20
2019-03-03T03:52:31.743Z,96721.09
2019-03-03T03:55:01.270Z,96709.22
2019-03-03T03:57:32.728Z,96714.84
2019-03-03T04:00:19.380Z,96720.98
2019-03-03T04:03:04.732Z,96708.59
2019-03-03T04:05:50.329Z,96708.84
2019-03-03T04:08:29.129Z,96707.50
2019-03-03T04:10:57.469Z,96707.00
2019-03-03T04:13:34.925Z,96700.53
2019-03-03T04:16:13.339Z,96685.75
2019-03-03T04:18:45.008Z,96692.47
2019-03-03T04:21:19.805Z,96685.45
2019-03-03T04:23:58.113Z,96693.45
2019-03-03T04:26:30.512Z,96697.73
2019-03-03T04:28:58.707Z,96693.70
2019-03-03T04:31:38.976Z,96685.34
2019-03-03T04:34:07.231Z,96686.39
2019-03-03T04:36:52.380Z,96684.50
2019-03-03T04:39:20.784Z,96691.45
2019-03-03T04:41:47.105Z,96688.76
2019-03-03T04:44:33.204Z,96684.73
2019-03-03T04:47:17.772Z,96685.52
2019-03-03T04:49:46.076Z,96682.55
2019-03-03T04:52:14.265Z,96682.84
2019-03-03T04:54:40.725Z,96684.18
2019-03-03T04:57:12.866Z,96687.98
2019-03-03T04:59:41.306Z,96688.53
2019-03-03T05:02:12.309Z,96693.11
2019-03-03T05:04:43.481Z,96694.71
2019-03-03T05:07:14.678Z,96697.08
2019-03-03T05:09:43.708Z,96697.08
2019-03-03T05:12:15.807Z,96694.39
2019-03-03T05:14:43.472Z,96688.21
2019-03-03T05:17:25.318Z,96697.08
2019-03-03T05:19:59.852Z,96695.73
2019-03-03T05:22:26.655Z,96689.27
2019-03-03T05:24:52.993Z,96697.83
2019-03-03T05:27:19.382Z,96693.80
2019-03-03T05:29:45.882Z,96697.03
2019-03-03T05:32:12.161Z,96695.14
2019-03-03T05:34:38.483Z,96687.88
2019-03-03T05:37:04.850Z,96684.89
2019-03-03T05:39:31.414Z,96694.23
2019-03-03T05:41:57.902Z,96681.59
2019-03-03T05:44:24.540Z,96688.31
2019-03-03T05:46:50.967Z,96683.73
2019-03-03T05:49:17.377Z,96681.05
2019-03-03T05:51:43.774Z,96683.98
2019-03-03T05:54:10.187Z,96682.89
2019-03-03T05:56:36.636Z,96684.48
2019-03-03T05:59:03.164Z,96687.43
2019-03-03T06:01:29.512Z,96688.48
2019-03-03T06:03:56.038Z,96680.41
2019-03-03T06:06:22.396Z,96684.66
2019-03-03T06:08:49.010Z,96681.44
2019-03-03T06:11:15.413Z,96675.77
2019-03-03T06:13:41.965Z,96667.40
2019-03-03T06:16:08.363Z,96664.16
2019-03-03T06:18:34.807Z,96676.22
2019-03-03T06:21:01.175Z,96676.22
2019-03-03T06:23:27.578Z,96678.84
2019-03-03T06:25:53.865Z,96683.13
2019-03-03T06:28:20.573Z,96675.85
2019-03-03T06:30:47.118Z,96675.02
2019-03-03T06:33:13.645Z,96674.72
2019-03-03T06:35:42.125Z,96664.97
2019-03-03T06:38:08.432Z,96672.50
2019-03-03T06:40:34.972Z,96668.16
2019-03-03T06:43:01.467Z,96670.52
2019-03-03T06:45:29.535Z,96668.30
2019-03-03T06:47:56.542Z,96671.99
2019-03-03T06:50:24.172Z,96673.77
2019-03-03T06:52:50.462Z,96657.32
2019-03-03T06:55:16.901Z,96641.85
2019-03-03T06:57:43.191Z,96638.52
2019-03-03T07:00:14.071Z,96639.68
2019-03-03T07:02:40.673Z,96640.05
2019-03-03T07:05:09.180Z,96631.49
2019-03-03T07:07:35.893Z,96632.02
2019-03-03T07:10:03.419Z,96632.08
2019-03-03T07:12:29.848Z,96644.76
2019-03-03T07:14:56.692Z,96648.60
2019-03-03T07:17:23.168Z,96637.99
2019-03-03T07:19:49.558Z,96650.86
2019-03-03T07:22:16.135Z,96655.39
2019-03-03T07:24:42.426Z,96652.31
2019-03-03T07:27:08.945Z,96648.16
2019-03-03T07:29:35.275Z,96643.48
2019-03-03T07:32:01.585Z,96645.27
2019-03-03T07:34:28.089Z,96654.31
2019-03-03T07:36:54.579Z,96654.74
2019-03-03T07:39:21.366Z,96659.74
2019-03-03T07:41:47.901Z,96658.34
2019-03-03T07:44:14.440Z,96659.38
2019-03-03T07:46:40.747Z,96660.39
2019-03-03T07:49:07.300Z,96663.77
2019-03-03T07:51:33.595Z,96669.87
2019-03-03T07:54:00.064Z,96662.22
2019-03-03T07:56:26.496Z,96656.48
2019-03-03T07:58:53.447Z,96657.22
2019-03-03T08:01:19.763Z,96667.16
2019-03-03T08:03:46.128Z,96665.75
2019-03-03T08:06:12.473Z,96668.35
2019-03-03T08:08:38.966Z,96667.25
2019-03-03T08:11:05.459Z,96658.05
2019-03-03T08:13:31.935Z,96656.16
2019-03-03T08:15:58.336Z,96652.42
2019-03-03T08:18:24.671Z,96650.27
2019-03-03T08:20:50.967Z,96651.38
2019-03-03T08:23:17.305Z,96650.58
2019-03-03T08:25:43.504Z,96648.62
2019-03-03T08:28:09.904Z,96649.91
2019-03-03T08:30:36.581Z,96653.00
2019-03-03T08:33:03.117Z,96655.79
2019-03-03T08:35:31.673Z,96658.58
2019-03-03T08:37:58.302Z,96648.94
2019-03-03T08:40:24.727Z,96651.97
2019-03-03T08:42:55.833Z,96655.86
2019-03-03T08:45:34.188Z,96653.34
2019-03-03T08:48:02.454Z,96648.27
2019-03-03T08:50:30.681Z,96651.53
2019-03-03T08:53:01.501Z,96651.30
2019-03-03T08:55:46.601Z,96646.67
2019-03-03T08:58:15.766Z,96647.58
2019-03-03T09:00:46.830Z,96643.74
2019-03-03T09:03:32.505Z,96645.44
2019-03-03T09:06:03.622Z,96644.84
2019-03-03T09:08:34.567Z,96640.78
2019-03-03T09:11:19.355Z,96640.30
2019-03-03T09:13:47.498Z,96634.74
2019-03-03T09:16:15.966Z,96644.09
2019-03-03T09:18:44.325Z,96641.56
2019-03-03T09:21:15.301Z,96645.20
2019-03-03T09:24:01.819Z,96650.14
2019-03-03T09:26:47.073Z,96643.52
2019-03-03T09:29:15.456Z,96643.02
2019-03-03T09:31:52.437Z,96639.84
2019-03-03T09:34:21.583Z,96636.90
2019-03-03T09:36:52.783Z,96634.38
2019-03-03T09:39:21.267Z,96633.23
2019-03-03T09:41:49.557Z,96640.13
2019-03-03T09:44:17.771Z,96631.17
2019-03-03T09:46:46.009Z,96618.13
2019-03-03T09:49:14.935Z,96625.84
2019-03-03T09:51:46.120Z,96628.22
2019-03-03T09:54:26.355Z,96616.77
2019-03-03T09:56:55.557Z,96633.88
2019-03-03T09:59:21.981Z,96629.06
2019-03-03T10:01:59.279Z,96623.69
2019-03-03T10:04:44.039Z,96623.32
2019-03-03T10:07:18.267Z,96632.66
2019-03-03T10:09:52.750Z,96636.73
2019-03-03T10:12:21.387Z,96637.47
2019-03-03T10:15:08.100Z,96633.25
2019-03-03T10:17:41.921Z,96626.68
2019-03-03T10:20:09.581Z,96622.81
2019-03-03T10:22:37.982Z,96624.31
2019-03-03T10:25:16.443Z,96613.98
2019-03-03T10:28:03.167Z,96616.68
2019-03-03T10:30:37.559Z,96617.16
2019-03-03T10:33:23.582Z,96624.53
2019-03-03T10:36:00.954Z,96619.18
2019-03-03T10:38:36.347Z,96611.89
2019-03-03T10:41:08.063Z,96610.44
2019-03-03T10:43:52.780Z,96611.97
2019-03-03T10:46:25.394Z,96614.86
2019-03-03T10:49:05.630Z,96611.70
2019-03-03T10:51:32.778Z,96606.11
2019-03-03T10:54:01.197Z,96603.47
2019-03-03T10:56:46.452Z,96586.23
2019-03-03T10:59:14.936Z,96598.69
2019-03-03T11:01:55.475Z,96597.89
2019-03-03T11:04:42.048Z,96589.19
2019-03-03T11:07:26.951Z,96592.30
2019-03-03T11:09:58.118Z,96599.45
2019-03-03T11:12:43.084Z,96602.95
2019-03-03T11:15:18.401Z,96601.41
2019-03-03T11:17:51.583Z,96596.70
2019-03-03T11:20:36.815Z,96594.61
2019-03-03T11:23:05.221Z,96590.61
2019-03-03T11:25:36.389Z,96582.09
2019-03-03T11:28:23.937Z,96575.12
2019-03-03T11:30:52.465Z,96575.92
2019-03-03T11:33:21.579Z,96587.72
2019-03-03T11:35:53.685Z,96583.38
2019-03-03T11:38:38.859Z,96581.98
2019-03-03T11:41:10.168Z,96567.28
2019-03-03T11:43:38.710Z,96567.95
2019-03-03T11:46:14.317Z,96577.42
2019-03-03T11:48:40.975Z,96572.25
2019-03-03T11:51:11.865Z,96556.05
2019-03-03T11:53:43.562Z,96566.91
2019-03-03T11:56:11.915Z,96567.14
2019-03-03T11:58:53.288Z,96583.47
2019-03-03T12:01:21.721Z,96573.64
2019-03-03T12:03:50.025Z,96560.31
2019-03-03T12:06:22.436Z,96567.16
2019-03-03T12:08:51.506Z,96566.36
2019-03-03T12:11:35.393Z,96573.08
2019-03-03T12:14:04.198Z,96566.95
2019-03-03T12:16:32.742Z,96563.63
2019-03-03T12:19:10.153Z,96549.13
2019-03-03T12:21:39.247Z,96552.62
2019-03-03T12:24:10.717Z,96553.73
2019-03-03T12:26:56.179Z,96546.98
2019-03-03T12:29:33.343Z,96541.73
2019-03-03T12:32:12.496Z,96541.06
2019-03-03T12:34:46.799Z,96539.88
2019-03-03T12:37:33.724Z,96524.50
2019-03-03T12:40:08.167Z,96529.91
2019-03-03T12:42:39.297Z,96525.84
2019-03-03T12:45:11.033Z,96536.03
2019-03-03T12:47:37.327Z,96547.09
2019-03-03T12:50:28.516Z,96529.97
2019-03-03T12:53:14.153Z,96520.61
2019-03-03T12:55:40.583Z,96518.29
2019-03-03T12:58:25.393Z,96529.14
2019-03-03T13:01:02.553Z,96519.47
2019-03-03T13:03:47.239Z,96528.94
2019-03-03T13:06:24.062Z,96528.82
2019-03-03T13:09:01.071Z,96523.47
2019-03-03T13:11:45.811Z,96517.23
2019-03-03T13:14:19.933Z,96513.11
2019-03-03T13:17:04.917Z,96519.52
2019-03-03T13:19:43.408Z,96512.05
2019-03-03T13:22:29.783Z,96501.20
2019-03-03T13:25:06.800Z,96509.08
2019-03-03T13:27:35.432Z,96517.75
2019-03-03T13:30:06.325Z,96509.75
2019-03-03T13:32:51.607Z,96529.25
2019-03-03T13:35:36.480Z,96505.78
2019-03-03T13:38:21.957Z,96515.81
2019-03-03T13:41:03.774Z,96510.40
2019-03-03T13:43:30.243Z,96510.40
2019-03-03T13:45:56.729Z,96508.25
2019-03-03T13:48:23.170Z,96511.98
2019-03-03T13:50:49.690Z,96512.45
2019-03-03T13:53:16.100Z,96517.87
2019-03-03T13:55:42.604Z,96519.42
2019-03-03T13:58:08.947Z,96507.05
2019-03-03T14:00:35.450Z,96487.64
2019-03-03T14:03:02.051Z,96499.34
2019-03-03T14:05:28.795Z,96492.81
2019-03-03T14:07:55.248Z,96498.22
2019-03-03T14:10:22.067Z,96496.23
2019-03-03T14:12:48.656Z,96484.49
2019-03-03T14:15:17.875Z,96474.62
2019-03-03T14:17:46.222Z,96469.88
2019-03-03T14:20:17.291Z,96463.12
2019-03-03T14:22:43.644Z,96458.50
2019-03-03T14:25:10.476Z,96457.50
2019-03-03T14:27:37.589Z,96459.41
2019-03-03T14:30:11.913Z,96451.63
2019-03-03T14:32:38.552Z,96457.27
2019-03-03T14:35:08.586Z,96443.98
2019-03-03T14:37:35.256Z,96444.97
2019-03-03T14:40:03.251Z,96443.30
2019-03-03T14:42:29.640Z,96434.30
2019-03-03T14:44:56.290Z,96433.18
2019-03-03T14:47:24.499Z,96427.44
2019-03-03T14:49:53.089Z,96422.03
2019-03-03T14:52:19.389Z,96424.17
2019-03-03T14:54:45.751Z,96428.44
2019-03-03T14:57:12.147Z,96427.55
2019-03-03T14:59:38.780Z,96418.09
2019-03-03T15:02:05.505Z,96417.76
2019-03-03T15:04:32.055Z,96413.81
2019-03-03T15:06:58.360Z,96421.05
2019-03-03T15:09:24.697Z,96413.16
2019-03-03T15:11:51.594Z,96409.34
2019-03-03T15:14:17.934Z,96402.56
2019-03-03T15:16:44.490Z,96396.92
2019-03-03T15:19:10.847Z,96394.55
2019-03-03T15:21:37.956Z,96406.28
2019-03-03T15:24:04.361Z,96396.91
2019-03-03T15:26:30.955Z,96388.32
2019-03-03T15:28:57.363Z,96388.65
2019-03-03T15:31:23.721Z,96385.83
2019-03-03T15:33:50.387Z,96396.42
2019-03-03T15:36:16.900Z,96390.31
2019-03-03T15:38:43.415Z,96402.25
2019-03-03T15:41:09.795Z,96397.52
2019-03-03T15:43:36.327Z,96397.28
2019-03-03T15:46:03.198Z,96399.05
2019-03-03T15:48:29.506Z,96403.11
2019-03-03T15:50:55.809Z,96397.02
2019-03-03T15:53:22.315Z,96394.97
2019-03-03T15:55:48.868Z,96390.80
2019-03-03T15:58:15.469Z,96394.48
2019-03-03T16:00:42.162Z,96396.74
2019-03-03T16:03:09.587Z,96386.10
2019-03-03T16:05:36.085Z,96377.31
2019-03-03T16:08:02.625Z,96383.34
2019-03-03T16:10:29.148Z,96379.61
2019-03-03T16:12:55.838Z,96378.02
2019-03-03T16:15:22.419Z,96387.48
2019-03-03T16:17:49.452Z,96386.60
2019-03-03T16:20:21.174Z,96383.10
2019-03-03T16:22:47.934Z,96379.28
2019-03-03T16:25:17.430Z,96380.08
2019-03-03T16:27:43.943Z,96383.58
2019-03-03T16:30:22.373Z,96378.16
2019-03-03T16:32:48.897Z,96375.23
2019-03-03T16:35:15.832Z,96379.84
2019-03-03T16:37:42.639Z,96382.55
2019-03-03T16:40:18.804Z,96386.13
2019-03-03T16:42:44.965Z,96383.75
2019-03-03T16:45:14.417Z,96380.84
2019-03-03T16:47:41.004Z,96375.20
2019-03-03T16:50:15.930Z,96376.55
2019-03-03T16:52:42.557Z,96373.84
2019-03-03T16:55:12.057Z,96370.91
2019-03-03T16:57:38.576Z,96368.53
2019-03-03T17:00:10.396Z,96362.01
2019-03-03T17:02:36.805Z,96354.45
2019-03-03T17:05:07.733Z,96356.71
2019-03-03T17:07:34.047Z,96360.45
2019-03-03T17:10:00.531Z,96364.91
2019-03-03T17:12:26.892Z,96366.05
2019-03-03T17:14:53.299Z,96364.49
2019-03-03T17:17:19.593Z,96345.56
2019-03-03T17:19:46.079Z,96353.12
2019-03-03T17:22:12.385Z,96353.67
2019-03-03T17:24:38.988Z,96352.13
2019-03-03T17:27:05.636Z,96352.13
2019-03-03T17:29:32.067Z,96355.38
2019-03-03T17:31:58.355Z,96355.94
2019-03-03T17:34:24.889Z,96349.51
2019-03-03T17:36:51.586Z,96347.36
2019-03-03T17:39:18.195Z,96346.89
2019-03-03T17:41:44.679Z,96341.48
2019-03-03T17:44:11.113Z,96330.67
2019-03-03T17:46:37.653Z,96339.48
2019-03-03T17:49:03.936Z,96332.16
2019-03-03T17:51:30.263Z,96338.02
2019-03-03T17:53:56.617Z,96324.16
2019-03-03T17:56:23.021Z,96332.28
2019-03-03T17:58:49.330Z,96331.39
2019-03-03T18:01:15.815Z,96329.80
2019-03-03T18:03:42.229Z,96328.45
2019-03-03T18:06:08.655Z,96334.19
2019-03-03T18:08:34.949Z,96334.55
2019-03-03T18:11:01.835Z,96330.25
2019-03-03T18:13:28.246Z,96332.95
2019-03-03T18:15:54.654Z,96318.88
2019-03-03T18:18:21.183Z,96316.73
2019-03-03T18:20:47.724Z,96323.73
2019-03-03T18:23:14.163Z,96324.72
2019-03-03T18:25:40.651Z,96324.39
2019-03-03T18:28:07.120Z,96314.93
2019-03-03T18:30:33.656Z,96332.28
2019-03-03T18:33:00.090Z,96328.45
2019-03-03T18:35:28.475Z,96329.02
2019-03-03T18:37:55.100Z,96325.19
2019-03-03T18:40:23.894Z,96325.42
2019-03-03T18:42:50.448Z,96319.45
2019-03-03T18:45:18.947Z,96314.95
2019-03-03T18:47:45.859Z,96308.89
2019-03-03T18:50:17.106Z,96313.41
2019-03-03T18:52:43.431Z,96308.67
2019-03-03T18:55:10.470Z,96317.02
2019-03-03T18:57:37.853Z,96320.52
2019-03-03T19:00:12.731Z,96333.95
2019-03-03T19:02:39.502Z,96312.53
2019-03-03T19:05:07.436Z,96312.97
2019-03-03T19:07:34.103Z,96320.76
2019-03-03T19:10:00.452Z,96317.41
2019-03-03T19:12:26.868Z,96304.90
2019-03-03T19:14:53.624Z,96301.08
2019-03-03T19:17:19.959Z,96301.84
2019-03-03T19:19:46.266Z,96309.63
2019-03-03T19:22:12.732Z,96309.30
2019-03-03T19:24:39.208Z,96307.94
2019-03-03T19:27:05.788Z,96305.80
2019-03-03T19:29:32.388Z,96300.16
2019-03-03T19:31:58.860Z,96287.19
2019-03-03T19:34:25.296Z,96289.33
2019-03-03T19:36:51.714Z,96291.80
2019-03-03T19:39:18.659Z,96291.60
2019-03-03T19:41:45.095Z,96295.43
2019-03-03T19:44:11.510Z,96291.60
2019-03-03T19:46:38.167Z,96288.54
2019-03-03T19:49:05.214Z,96276.83
2019-03-03T19:51:31.856Z,96268.15
2019-03-03T19:53:58.336Z,96270.85
2019-03-03T19:56:24.756Z,96266.80
2019-03-03T19:58:51.119Z,96256.20
2019-03-03T20:01:17.478Z,96255.88
2019-03-03T20:03:44.032Z,96253.27
2019-03-03T20:06:10.760Z,96255.64
2019-03-03T20:08:37.405Z,96253.97
2019-03-03T20:11:04.178Z,96228.25
2019-03-03T20:13:30.733Z,96228.25
2019-03-03T20:15:57.102Z,96230.96
2019-03-03T20:18:23.432Z,96240.89
2019-03-03T20:20:49.838Z,96237.03
2019-03-03T20:23:16.612Z,96234.79
2019-03-03T20:25:43.133Z,96235.81
2019-03-03T20:28:09.624Z,96232.55
2019-03-03T20:30:36.971Z,96238.19
2019-03-03T20:33:04.222Z,96221.25
2019-03-03T20:35:30.639Z,96235.94
2019-03-03T20:37:56.841Z,96232.77
2019-03-03T20:40:27.308Z,96230.17
2019-03-03T20:42:54.505Z,96224.98
2019-03-03T20:45:24.511Z,96227.83
2019-03-03T20:47:50.840Z,96209.87
2019-03-03T20:50:19.438Z,96211.34
2019-03-03T20:52:46.193Z,96213.25
2019-03-03T20:55:15.886Z,96217.77
2019-03-03T20:57:42.741Z,96207.50
2019-03-03T21:00:20.893Z,96204.34
2019-03-03T21:02:47.655Z,96185.05
2019-03-03T21:05:14.247Z,96207.84
2019-03-03T21:07:50.609Z,96191.69
2019-03-03T21:10:17.312Z,96191.13
2019-03-03T21:12:43.596Z,96181.56
2019-03-03T21:15:11.919Z,96181.44
2019-03-03T21:17:38.919Z,96187.55
2019-03-03T21:20:16.363Z,96187.66
2019-03-03T21:22:42.860Z,96193.63
2019-03-03T21:25:12.107Z,96178.41
2019-03-03T21:27:39.152Z,96177.28
2019-03-03T21:30:26.388Z,96180.42
2019-03-03T21:32:52.892Z,96182.56
2019-03-03T21:35:19.381Z,96182.23
2019-03-03T21:37:46.470Z,96181.66
2019-03-03T21:40:25.147Z,96183.59
2019-03-03T21:42:51.680Z,96183.36
2019-03-03T21:45:20.442Z,96185.50
2019-03-03T21:47:46.961Z,96174.80
2019-03-03T21:50:16.062Z,96176.36
2019-03-03T21:52:42.678Z,96170.94
2019-03-03T21:55:11.652Z,96178.39
2019-03-03T21:57:37.944Z,96171.86
2019-03-03T22:00:12.935Z,96164.42
2019-03-03T22:02:39.364Z,96160.78
2019-03-03T22:05:05.993Z,96162.14
2019-03-03T22:07:32.287Z,96156.16
2019-03-03T22:09:58.691Z,96151.30
2019-03-03T22:12:25.265Z,96163.73
2019-03-03T22:14:51.597Z,96152.45
2019-03-03T22:17:17.914Z,96151.00
2019-03-03T22:19:44.374Z,96148.62
2019-03-03T22:22:10.708Z,96158.44
2019-03-03T22:24:37.012Z,96147.95
2019-03-03T22:27:03.616Z,96147.16
2019-03-03T22:29:30.107Z,96143.66
2019-03-03T22:31:56.531Z,96127.97
2019-03-03T22:34:22.975Z,96136.66
2019-03-03T22:36:49.303Z,96122.36
2019-03-03T22:39:15.702Z,96126.20
2019-03-03T22:41:42.205Z,96136.09
2019-03-03T22:44:08.793Z,96129.67
2019-03-03T22:46:35.107Z,96127.63
2019-03-03T22:49:01.544Z,96130.33
2019-03-03T22:51:27.866Z,96117.91
2019-03-03T22:53:54.285Z,96132.80
2019-03-03T22:56:20.697Z,96125.70
2019-03-03T22:58:46.898Z,96125.92
2019-03-03T23:01:17.691Z,96118.92
2019-03-03T23:04:29.366Z,96124.00
2019-03-03T23:07:10.171Z,96111.14
2019-03-03T23:10:13.561Z,96106.20
2019-03-03T23:13:02.248Z,96098.30
2019-03-03T23:15:46.504Z,96092.90
2019-03-03T23:18:36.538Z,96080.03
2019-03-03T23:21:23.745Z,96070.70
2019-03-03T23:24:21.319Z,96069.12
2019-03-03T23:26:47.631Z,96066.30
2019-03-03T23:29:13.819Z,96061.81
2019-03-03T23:31:40.263Z,96065.75
2019-03-03T23:34:06.557Z,96056.39
2019-03-03T23:36:33.063Z,96047.25
2019-03-03T23:38:59.606Z,96054.61
2019-03-03T23:41:25.949Z,96055.73
2019-03-03T23:43:52.272Z,96051.78
2019-03-03T23:46:18.655Z,96048.62
2019-03-03T23:48:45.189Z,96048.62
2019-03-03T23:51:11.571Z,96045.58
2019-03-03T23:53:38.458Z,96053.47
2019-03-03T23:56:04.936Z,96051.33
2019-03-03T23:58:31.520Z,96056.17
